createdAt,value
2022-10-29T00:00:42.643Z,1015.28
2022-10-29T00:01:42.713Z,1015.23
2022-10-29T00:02:42.685Z,1015.22
2022-10-29T00:03:42.614Z,1015.21
2022-10-29T00:04:42.611Z,1015.18
2022-10-29T00:05:42.587Z,1015.25
2022-10-29T00:06:42.618Z,1015.22
2022-10-29T00:07:42.554Z,1015.21
2022-10-29T00:08:42.555Z,1015.28
2022-10-29T00:09:42.569Z,1015.21
2022-10-29T00:10:42.526Z,1015.16
2022-10-29T00:11:42.516Z,1015.23
2022-10-29T00:12:42.516Z,1015.24
2022-10-29T00:13:42.489Z,1015.28
2022-10-29T00:14:42.488Z,1015.17
2022-10-29T00:15:42.472Z,1015.21
2022-10-29T00:16:42.472Z,1015.21
2022-10-29T00:17:42.449Z,1015.21
2022-10-29T00:18:42.441Z,1015.14
2022-10-29T00:19:42.421Z,1015.20
2022-10-29T00:20:42.413Z,1015.21
2022-10-29T00:21:42.412Z,1015.17
2022-10-29T00:22:42.389Z,1015.22
2022-10-29T00:23:42.383Z,1015.22
2022-10-29T00:24:42.364Z,1015.22
2022-10-29T00:25:42.356Z,1015.24
2022-10-29T00:26:42.370Z,1015.20
2022-10-29T00:27:42.332Z,1015.23
2022-10-29T00:28:42.347Z,1015.23
2022-10-29T00:29:42.314Z,1015.25
2022-10-29T00:30:42.296Z,1015.27
2022-10-29T00:31:42.391Z,1015.31
2022-10-29T00:32:42.281Z,1015.41
2022-10-29T00:33:42.279Z,1015.42
2022-10-29T00:34:42.249Z,1015.38
2022-10-29T00:35:42.250Z,1015.45
2022-10-29T00:36:49.809Z,1015.43
2022-10-29T00:37:42.246Z,1015.48
2022-10-29T00:38:42.201Z,1015.45
2022-10-29T00:39:42.204Z,1015.41
2022-10-29T00:40:42.182Z,1015.40
2022-10-29T00:41:42.184Z,1015.41
2022-10-29T00:42:42.161Z,1015.46
2022-10-29T00:43:42.173Z,1015.44
2022-10-29T00:44:42.155Z,1015.40
2022-10-29T00:45:42.128Z,1015.33
2022-10-29T00:46:42.135Z,1015.35
2022-10-29T00:47:42.116Z,1015.38
2022-10-29T00:48:42.092Z,1015.32
2022-10-29T00:49:42.091Z,1015.28
2022-10-29T00:50:42.069Z,1015.32
2022-10-29T00:51:42.061Z,1015.26
2022-10-29T00:52:42.049Z,1015.31
2022-10-29T00:53:42.041Z,1015.28
2022-10-29T00:54:42.044Z,1015.29
2022-10-29T00:55:42.014Z,1015.32
2022-10-29T00:56:42.000Z,1015.31
2022-10-29T00:57:41.988Z,1015.32
2022-10-29T00:58:41.981Z,1015.36
2022-10-29T00:59:42.007Z,1015.35
2022-10-29T01:00:41.972Z,1015.27
2022-10-29T01:01:42.112Z,1015.29
2022-10-29T01:02:42.063Z,1015.32
2022-10-29T01:03:41.922Z,1015.24
2022-10-29T01:04:41.927Z,1015.23
2022-10-29T01:05:41.904Z,1015.25
2022-10-29T01:06:41.894Z,1015.26
2022-10-29T01:07:41.876Z,1015.25
2022-10-29T01:08:41.870Z,1015.23
2022-10-29T01:09:41.853Z,1015.26
2022-10-29T01:10:41.853Z,1015.26
2022-10-29T01:11:41.836Z,1015.22
2022-10-29T01:12:41.818Z,1015.22
2022-10-29T01:13:41.813Z,1015.19
2022-10-29T01:14:41.796Z,1015.22
2022-10-29T01:15:41.798Z,1015.26
2022-10-29T01:16:41.824Z,1015.21
2022-10-29T01:17:41.774Z,1015.21
2022-10-29T01:18:41.800Z,1015.22
2022-10-29T01:19:41.744Z,1015.26
2022-10-29T01:20:41.753Z,1015.24
2022-10-29T01:21:41.722Z,1015.32
2022-10-29T01:22:41.706Z,1015.32
2022-10-29T01:23:41.700Z,1015.27
2022-10-29T01:24:41.680Z,1015.28
2022-10-29T01:25:41.688Z,1015.28
2022-10-29T01:26:41.685Z,1015.24
2022-10-29T01:27:41.663Z,1015.19
2022-10-29T01:28:41.660Z,1015.19
2022-10-29T01:29:41.633Z,1015.09
2022-10-29T01:30:41.617Z,1015.14
2022-10-29T01:31:41.610Z,1015.17
2022-10-29T01:32:41.621Z,1015.08
2022-10-29T01:33:41.584Z,1015.10
2022-10-29T01:34:41.571Z,1015.12
2022-10-29T01:35:41.562Z,1015.13
2022-10-29T01:36:41.554Z,1015.06
2022-10-29T01:37:41.558Z,1015.05
2022-10-29T01:38:41.538Z,1015.01
2022-10-29T01:39:41.526Z,1014.97
2022-10-29T01:40:41.503Z,1014.98
2022-10-29T01:41:41.509Z,1014.95
2022-10-29T01:42:41.486Z,1015.00
2022-10-29T01:43:41.497Z,1014.94
2022-10-29T01:44:41.470Z,1014.93
2022-10-29T01:45:41.465Z,1014.89
2022-10-29T01:46:41.447Z,1014.83
2022-10-29T01:47:41.430Z,1014.87
2022-10-29T01:48:41.443Z,1014.88
2022-10-29T01:49:41.413Z,1014.86
2022-10-29T01:50:41.394Z,1014.85
2022-10-29T01:51:41.389Z,1014.86
2022-10-29T01:52:41.368Z,1014.85
2022-10-29T01:53:41.358Z,1014.87
2022-10-29T01:54:41.347Z,1014.88
2022-10-29T01:55:41.340Z,1014.87
2022-10-29T01:56:41.335Z,1014.83
2022-10-29T01:57:41.357Z,1014.84
2022-10-29T01:58:41.303Z,1014.73
2022-10-29T01:59:51.508Z,1014.76
2022-10-29T02:00:42.323Z,1014.71
2022-10-29T02:01:41.338Z,1014.75
2022-10-29T02:02:45.750Z,1014.77
2022-10-29T02:03:42.247Z,1014.71
2022-10-29T02:04:41.271Z,1014.73
2022-10-29T02:05:41.233Z,1014.64
2022-10-29T02:06:41.221Z,1014.68
2022-10-29T02:07:41.217Z,1014.65
2022-10-29T02:08:41.203Z,1014.69
2022-10-29T02:09:41.182Z,1014.76
2022-10-29T02:10:41.174Z,1014.75
2022-10-29T02:11:41.155Z,1014.71
2022-10-29T02:12:41.158Z,1014.76
2022-10-29T02:13:41.139Z,1014.73
2022-10-29T02:14:41.121Z,1014.71
2022-10-29T02:15:41.116Z,1014.69
2022-10-29T02:16:41.117Z,1014.70
2022-10-29T02:17:41.101Z,1014.64
2022-10-29T02:18:41.077Z,1014.68
2022-10-29T02:19:41.085Z,1014.70
2022-10-29T02:20:41.085Z,1014.63
2022-10-29T02:21:41.054Z,1014.64
2022-10-29T02:22:41.031Z,1014.65
2022-10-29T02:23:41.023Z,1014.55
2022-10-29T02:24:41.018Z,1014.56
2022-10-29T02:25:41.175Z,1014.59
2022-10-29T02:26:40.993Z,1014.57
2022-10-29T02:27:40.985Z,1014.57
2022-10-29T02:28:40.965Z,1014.56
2022-10-29T02:29:40.960Z,1014.56
2022-10-29T02:30:40.951Z,1014.52
2022-10-29T02:31:40.949Z,1014.48
2022-10-29T02:32:40.940Z,1014.50
2022-10-29T02:33:40.917Z,1014.52
2022-10-29T02:34:40.905Z,1014.51
2022-10-29T02:35:40.939Z,1014.49
2022-10-29T02:36:40.910Z,1014.44
2022-10-29T02:37:40.886Z,1014.45
2022-10-29T02:38:40.868Z,1014.50
2022-10-29T02:39:40.844Z,1014.45
2022-10-29T02:40:40.830Z,1014.47
2022-10-29T02:41:40.826Z,1014.45
2022-10-29T02:42:40.835Z,1014.42
2022-10-29T02:43:40.807Z,1014.46
2022-10-29T02:44:40.794Z,1014.39
2022-10-29T02:45:40.778Z,1014.45
2022-10-29T02:46:40.771Z,1014.43
2022-10-29T02:47:40.786Z,1014.42
2022-10-29T02:48:40.741Z,1014.39
2022-10-29T02:49:40.730Z,1014.34
2022-10-29T02:50:40.744Z,1014.35
2022-10-29T02:51:40.712Z,1014.39
2022-10-29T02:52:40.730Z,1014.40
2022-10-29T02:53:40.687Z,1014.41
2022-10-29T02:54:40.674Z,1014.41
2022-10-29T02:55:40.687Z,1014.37
2022-10-29T02:56:40.670Z,1014.39
2022-10-29T02:57:40.649Z,1014.32
2022-10-29T02:58:40.655Z,1014.28
2022-10-29T02:59:40.626Z,1014.27
2022-10-29T03:00:40.606Z,1014.25
2022-10-29T03:01:40.757Z,1014.28
2022-10-29T03:02:40.667Z,1014.30
2022-10-29T03:03:40.581Z,1014.30
2022-10-29T03:04:40.595Z,1014.33
2022-10-29T03:05:43.006Z,1014.34
2022-10-29T03:06:40.549Z,1014.29
2022-10-29T03:07:40.527Z,1014.34
2022-10-29T03:08:40.542Z,1014.29
2022-10-29T03:09:40.513Z,1014.36
2022-10-29T03:10:40.501Z,1014.26
2022-10-29T03:11:40.481Z,1014.34
2022-10-29T03:12:40.465Z,1014.31
2022-10-29T03:13:40.485Z,1014.31
2022-10-29T03:14:40.462Z,1014.31
2022-10-29T03:15:40.450Z,1014.32
2022-10-29T03:16:40.426Z,1014.35
2022-10-29T03:17:40.423Z,1014.30
2022-10-29T03:18:40.403Z,1014.29
2022-10-29T03:19:40.395Z,1014.33
2022-10-29T03:20:40.393Z,1014.28
2022-10-29T03:21:40.377Z,1014.31
2022-10-29T03:22:40.358Z,1014.23
2022-10-29T03:23:40.356Z,1014.22
2022-10-29T03:24:40.351Z,1014.23
2022-10-29T03:25:40.340Z,1014.21
2022-10-29T03:26:40.316Z,1014.25
2022-10-29T03:27:40.316Z,1014.29
2022-10-29T03:28:40.369Z,1014.25
2022-10-29T03:29:40.293Z,1014.30
2022-10-29T03:30:40.263Z,1014.27
2022-10-29T03:31:40.278Z,1014.30
2022-10-29T03:32:40.245Z,1014.24
2022-10-29T03:33:40.241Z,1014.25
2022-10-29T03:34:40.233Z,1014.15
2022-10-29T03:35:40.291Z,1014.13
2022-10-29T03:36:40.201Z,1014.13
2022-10-29T03:37:40.194Z,1014.16
2022-10-29T03:38:40.198Z,1014.21
2022-10-29T03:39:40.170Z,1014.16
2022-10-29T03:40:40.180Z,1014.13
2022-10-29T03:41:40.150Z,1014.11
2022-10-29T03:42:40.134Z,1014.11
2022-10-29T03:43:40.125Z,1014.14
2022-10-29T03:44:40.120Z,1014.13
2022-10-29T03:45:40.144Z,1014.13
2022-10-29T03:46:40.099Z,1014.09
2022-10-29T03:47:40.085Z,1014.07
2022-10-29T03:48:40.064Z,1014.11
2022-10-29T03:49:40.049Z,1014.11
2022-10-29T03:50:40.050Z,1014.09
2022-10-29T03:51:40.043Z,1014.10
2022-10-29T03:52:40.032Z,1014.01
2022-10-29T03:53:40.031Z,1013.96
2022-10-29T03:54:40.003Z,1013.97
2022-10-29T03:55:40.006Z,1013.94
2022-10-29T03:56:39.996Z,1013.89
2022-10-29T03:57:39.967Z,1013.87
2022-10-29T03:58:39.973Z,1013.89
2022-10-29T03:59:39.936Z,1013.82
2022-10-29T04:00:39.936Z,1013.88
2022-10-29T04:01:40.071Z,1013.90
2022-10-29T04:02:40.087Z,1013.96
2022-10-29T04:03:39.897Z,1013.91
2022-10-29T04:04:39.894Z,1013.91
2022-10-29T04:05:39.876Z,1013.95
2022-10-29T04:06:39.868Z,1014.05
2022-10-29T04:07:39.871Z,1013.97
2022-10-29T04:08:39.850Z,1014.02
2022-10-29T04:09:39.829Z,1014.00
2022-10-29T04:10:39.818Z,1014.04
2022-10-29T04:11:39.804Z,1013.99
2022-10-29T04:12:39.815Z,1014.11
2022-10-29T04:13:39.796Z,1014.14
2022-10-29T04:14:44.535Z,1014.17
2022-10-29T04:15:40.773Z,1014.27
2022-10-29T04:16:39.755Z,1014.30
2022-10-29T04:17:39.742Z,1014.24
2022-10-29T04:18:39.737Z,1014.28
2022-10-29T04:19:39.734Z,1014.33
2022-10-29T04:20:59.718Z,1014.31
2022-10-29T04:26:34.579Z,1014.32
2022-10-29T04:28:43.267Z,1014.23
2022-10-29T04:29:39.601Z,1014.21
2022-10-29T04:30:39.607Z,1014.21
2022-10-29T04:31:39.582Z,1014.19
2022-10-29T04:32:39.580Z,1014.25
2022-10-29T04:33:39.564Z,1014.25
2022-10-29T04:34:39.576Z,1014.28
2022-10-29T04:35:39.673Z,1014.26
2022-10-29T04:36:39.522Z,1014.30
2022-10-29T04:37:39.516Z,1014.29
2022-10-29T04:38:39.518Z,1014.31
2022-10-29T04:39:39.510Z,1014.30
2022-10-29T04:40:39.489Z,1014.29
2022-10-29T04:41:39.469Z,1014.30
2022-10-29T04:42:39.468Z,1014.30
2022-10-29T04:43:39.442Z,1014.30
2022-10-29T04:44:39.466Z,1014.27
2022-10-29T04:45:39.452Z,1014.25
2022-10-29T04:46:39.410Z,1014.26
2022-10-29T04:47:39.398Z,1014.26
2022-10-29T04:48:39.475Z,1014.20
2022-10-29T04:49:39.378Z,1014.25
2022-10-29T04:50:39.376Z,1014.26
2022-10-29T04:51:39.376Z,1014.23
2022-10-29T04:52:39.366Z,1014.28
2022-10-29T04:53:39.359Z,1014.23
2022-10-29T04:54:39.321Z,1014.30
2022-10-29T04:55:39.315Z,1014.31
2022-10-29T04:56:39.299Z,1014.29
2022-10-29T04:57:39.284Z,1014.25
2022-10-29T04:58:39.314Z,1014.26
2022-10-29T04:59:39.263Z,1014.26
2022-10-29T05:00:39.359Z,1014.27
2022-10-29T05:01:39.246Z,1014.24
2022-10-29T05:02:39.238Z,1014.24
2022-10-29T05:03:39.216Z,1014.24
2022-10-29T05:04:39.206Z,1014.23
2022-10-29T05:05:39.198Z,1014.20
2022-10-29T05:06:39.351Z,1014.17
2022-10-29T05:07:39.180Z,1014.17
2022-10-29T05:08:39.166Z,1014.20
2022-10-29T05:09:39.165Z,1014.22
2022-10-29T05:10:39.162Z,1014.16
2022-10-29T05:11:39.126Z,1014.18
2022-10-29T05:12:39.118Z,1014.17
2022-10-29T05:13:39.106Z,1014.09
2022-10-29T05:14:39.099Z,1014.12
2022-10-29T05:15:39.082Z,1014.11
2022-10-29T05:16:39.102Z,1014.07
2022-10-29T05:17:39.060Z,1014.04
2022-10-29T05:18:39.051Z,1014.01
2022-10-29T05:19:39.032Z,1014.01
2022-10-29T05:20:39.033Z,1014.03
2022-10-29T05:21:39.045Z,1014.02
2022-10-29T05:22:39.006Z,1014.03
2022-10-29T05:23:39.024Z,1013.94
2022-10-29T05:24:38.975Z,1013.90
2022-10-29T05:25:38.964Z,1013.90
2022-10-29T05:26:38.958Z,1013.96
2022-10-29T05:27:38.949Z,1013.91
2022-10-29T05:28:38.937Z,1013.87
2022-10-29T05:29:38.925Z,1013.89
2022-10-29T05:30:38.915Z,1013.87
2022-10-29T05:31:38.923Z,1013.92
2022-10-29T05:32:38.916Z,1013.86
2022-10-29T05:33:38.882Z,1013.84
2022-10-29T05:34:42.018Z,1013.81
2022-10-29T05:35:38.850Z,1013.81
2022-10-29T05:36:38.858Z,1013.83
2022-10-29T05:37:38.828Z,1013.77
2022-10-29T05:38:38.819Z,1013.80
2022-10-29T05:39:38.821Z,1013.83
2022-10-29T05:40:38.801Z,1013.75
2022-10-29T05:41:38.789Z,1013.77
2022-10-29T05:42:41.437Z,1013.77
2022-10-29T05:43:38.787Z,1013.78
2022-10-29T05:44:38.764Z,1013.83
2022-10-29T05:45:38.738Z,1013.81
2022-10-29T05:46:38.731Z,1013.88
2022-10-29T05:47:38.716Z,1013.82
2022-10-29T05:48:38.740Z,1013.89
2022-10-29T05:49:38.704Z,1013.83
2022-10-29T05:50:38.685Z,1013.89
2022-10-29T05:51:38.673Z,1013.84
2022-10-29T05:52:38.669Z,1013.85
2022-10-29T05:53:38.659Z,1013.86
2022-10-29T05:54:38.641Z,1013.83
2022-10-29T05:55:38.626Z,1013.77
2022-10-29T05:56:38.622Z,1013.63
2022-10-29T05:57:38.603Z,1013.61
2022-10-29T05:58:38.607Z,1013.55
2022-10-29T05:59:38.582Z,1013.58
2022-10-29T06:00:38.597Z,1013.57
2022-10-29T06:01:38.714Z,1013.57
2022-10-29T06:02:38.651Z,1013.60
2022-10-29T06:03:38.621Z,1013.60
2022-10-29T06:04:38.575Z,1013.66
2022-10-29T06:05:38.526Z,1013.71
2022-10-29T06:06:38.580Z,1013.75
2022-10-29T06:07:38.495Z,1013.75
2022-10-29T06:08:38.486Z,1013.89
2022-10-29T06:09:38.468Z,1013.87
2022-10-29T06:10:38.482Z,1013.91
2022-10-29T06:11:38.443Z,1013.92
2022-10-29T06:12:38.444Z,1013.94
2022-10-29T06:13:38.423Z,1013.89
2022-10-29T06:14:38.421Z,1013.85
2022-10-29T06:15:38.401Z,1013.83
2022-10-29T06:16:38.390Z,1013.85
2022-10-29T06:17:38.409Z,1013.86
2022-10-29T06:18:38.383Z,1013.83
2022-10-29T06:20:38.362Z,1013.79
2022-10-29T06:21:38.335Z,1013.83
2022-10-29T06:22:38.329Z,1013.94
2022-10-29T06:23:38.317Z,1013.93
2022-10-29T06:24:38.299Z,1014.02
2022-10-29T06:25:38.285Z,1013.99
2022-10-29T06:26:38.289Z,1013.99
2022-10-29T06:27:38.287Z,1014.00
2022-10-29T06:28:38.256Z,1013.92
2022-10-29T06:29:38.268Z,1013.92
2022-10-29T06:30:38.252Z,1013.93
2022-10-29T06:31:38.236Z,1013.92
2022-10-29T06:32:38.218Z,1013.93
2022-10-29T06:33:38.195Z,1014.02
2022-10-29T06:34:38.200Z,1013.98
2022-10-29T06:35:38.200Z,1014.03
2022-10-29T06:36:45.275Z,1013.93
2022-10-29T06:37:38.147Z,1013.96
2022-10-29T06:38:38.136Z,1013.88
2022-10-29T06:39:38.143Z,1013.92
2022-10-29T06:40:38.118Z,1013.90
2022-10-29T06:41:38.141Z,1013.91
2022-10-29T06:42:38.095Z,1013.90
2022-10-29T06:43:38.080Z,1013.87
2022-10-29T06:44:38.070Z,1013.88
2022-10-29T06:45:38.074Z,1013.85
2022-10-29T06:46:38.054Z,1013.88
2022-10-29T06:47:38.044Z,1013.86
2022-10-29T06:48:38.033Z,1013.84
2022-10-29T06:49:38.013Z,1013.90
2022-10-29T06:50:38.005Z,1013.88
2022-10-29T06:51:38.002Z,1013.83
2022-10-29T06:52:38.018Z,1013.89
2022-10-29T06:53:37.965Z,1013.86
2022-10-29T06:54:37.957Z,1013.92
2022-10-29T06:55:37.941Z,1013.93
2022-10-29T06:56:37.935Z,1013.95
2022-10-29T06:57:37.929Z,1014.00
2022-10-29T06:58:37.946Z,1013.99
2022-10-29T06:59:37.937Z,1014.02
2022-10-29T07:00:38.092Z,1014.05
2022-10-29T07:01:37.908Z,1014.08
2022-10-29T07:02:37.867Z,1014.06
2022-10-29T07:03:37.879Z,1014.01
2022-10-29T07:04:37.846Z,1013.94
2022-10-29T07:05:37.828Z,1013.94
2022-10-29T07:06:37.846Z,1013.98
2022-10-29T07:07:37.806Z,1013.96
2022-10-29T07:08:37.822Z,1013.99
2022-10-29T07:09:37.803Z,1013.99
2022-10-29T07:10:37.776Z,1014.02
2022-10-29T07:11:37.768Z,1013.98
2022-10-29T07:12:37.767Z,1014.02
2022-10-29T07:13:37.751Z,1014.03
2022-10-29T07:14:37.758Z,1014.01
2022-10-29T07:15:37.713Z,1014.00
2022-10-29T07:16:37.714Z,1014.04
2022-10-29T07:17:37.695Z,1013.97
2022-10-29T07:18:37.703Z,1013.90
2022-10-29T07:19:37.671Z,1013.90
2022-10-29T07:20:37.697Z,1013.85
2022-10-29T07:21:37.647Z,1013.84
2022-10-29T07:22:37.642Z,1013.81
2022-10-29T07:23:37.636Z,1013.80
2022-10-29T07:24:37.642Z,1013.85
2022-10-29T07:25:37.632Z,1013.88
2022-10-29T07:26:37.596Z,1013.75
2022-10-29T07:27:37.702Z,1013.82
2022-10-29T07:28:37.570Z,1013.82
2022-10-29T07:29:37.580Z,1013.76
2022-10-29T07:30:37.554Z,1013.81
2022-10-29T07:31:37.548Z,1013.79
2022-10-29T07:32:37.528Z,1013.80
2022-10-29T07:33:37.511Z,1013.81
2022-10-29T07:34:37.504Z,1013.82
2022-10-29T07:35:37.511Z,1013.78
2022-10-29T07:36:37.498Z,1013.83
2022-10-29T07:37:37.477Z,1013.77
2022-10-29T07:38:37.461Z,1013.79
2022-10-29T07:39:37.455Z,1013.83
2022-10-29T07:40:37.455Z,1013.81
2022-10-29T07:41:37.439Z,1013.81
2022-10-29T07:42:37.431Z,1013.78
2022-10-29T07:43:37.399Z,1013.80
2022-10-29T07:44:37.390Z,1013.81
2022-10-29T07:45:37.377Z,1013.76
2022-10-29T07:46:37.385Z,1013.73
2022-10-29T07:47:37.364Z,1013.75
2022-10-29T07:48:37.357Z,1013.75
2022-10-29T07:49:37.336Z,1013.77
2022-10-29T07:50:37.317Z,1013.78
2022-10-29T07:51:37.327Z,1013.74
2022-10-29T07:52:37.295Z,1013.86
2022-10-29T07:53:37.298Z,1013.81
2022-10-29T07:54:37.283Z,1013.83
2022-10-29T07:55:37.267Z,1013.91
2022-10-29T07:56:37.272Z,1013.93
2022-10-29T07:57:37.272Z,1013.93
2022-10-29T07:58:37.237Z,1013.90
2022-10-29T07:59:37.223Z,1013.88
2022-10-29T08:00:37.231Z,1013.86
2022-10-29T08:01:37.340Z,1013.84
2022-10-29T08:02:37.193Z,1013.91
2022-10-29T08:03:37.202Z,1014.02
2022-10-29T08:04:37.165Z,1013.95
2022-10-29T08:05:37.180Z,1013.95
2022-10-29T08:06:37.139Z,1013.97
2022-10-29T08:07:37.141Z,1013.96
2022-10-29T08:08:37.137Z,1013.96
2022-10-29T08:09:37.132Z,1013.96
2022-10-29T08:10:37.101Z,1013.88
2022-10-29T08:11:37.149Z,1013.98
2022-10-29T08:12:37.098Z,1013.95
2022-10-29T08:13:37.079Z,1014.00
2022-10-29T08:14:37.071Z,1013.98
2022-10-29T08:15:37.041Z,1013.95
2022-10-29T08:16:37.030Z,1013.93
2022-10-29T08:17:37.019Z,1013.94
2022-10-29T08:18:37.011Z,1013.95
2022-10-29T08:19:37.009Z,1013.97
2022-10-29T08:20:36.993Z,1013.93
2022-10-29T08:21:36.978Z,1013.94
2022-10-29T08:22:36.964Z,1013.89
2022-10-29T08:23:36.952Z,1013.97
2022-10-29T08:24:36.952Z,1013.99
2022-10-29T08:25:36.930Z,1013.98
2022-10-29T08:26:36.919Z,1013.93
2022-10-29T08:27:36.919Z,1013.95
2022-10-29T08:28:36.914Z,1013.90
2022-10-29T08:29:36.883Z,1013.84
2022-10-29T08:30:36.888Z,1013.86
2022-10-29T08:31:36.884Z,1013.83
2022-10-29T08:32:36.848Z,1013.85
2022-10-29T08:33:36.843Z,1013.87
2022-10-29T08:34:36.850Z,1013.89
2022-10-29T08:35:36.819Z,1013.85
2022-10-29T08:36:36.817Z,1013.89
2022-10-29T08:37:36.792Z,1013.86
2022-10-29T08:38:36.783Z,1013.86
2022-10-29T08:39:36.778Z,1013.83
2022-10-29T08:40:36.783Z,1013.82
2022-10-29T08:41:36.762Z,1013.80
2022-10-29T08:42:36.732Z,1013.92
2022-10-29T08:43:36.738Z,1013.86
2022-10-29T08:44:36.738Z,1013.87
2022-10-29T08:45:36.726Z,1013.87
2022-10-29T08:46:36.690Z,1013.83
2022-10-29T08:47:36.707Z,1013.86
2022-10-29T08:48:36.667Z,1013.83
2022-10-29T08:49:36.666Z,1013.85
2022-10-29T08:50:36.653Z,1013.91
2022-10-29T08:51:36.650Z,1013.84
2022-10-29T08:52:36.620Z,1013.89
2022-10-29T08:53:36.624Z,1013.83
2022-10-29T08:54:36.597Z,1013.82
2022-10-29T08:55:36.590Z,1013.84
2022-10-29T08:56:36.601Z,1013.84
2022-10-29T08:57:36.571Z,1013.84
2022-10-29T08:58:36.561Z,1013.82
2022-10-29T08:59:36.556Z,1013.78
2022-10-29T09:00:36.584Z,1013.77
2022-10-29T09:01:36.653Z,1013.78
2022-10-29T09:02:36.509Z,1013.79
2022-10-29T09:03:36.519Z,1013.74
2022-10-29T09:04:36.485Z,1013.84
2022-10-29T09:05:36.476Z,1013.80
2022-10-29T09:06:36.470Z,1013.80
2022-10-29T09:07:36.456Z,1013.88
2022-10-29T09:08:36.463Z,1013.83
2022-10-29T09:09:36.435Z,1013.85
2022-10-29T09:10:36.419Z,1013.86
2022-10-29T09:11:36.412Z,1013.83
2022-10-29T09:12:36.394Z,1013.77
2022-10-29T09:13:36.389Z,1013.81
2022-10-29T09:14:36.399Z,1013.70
2022-10-29T09:15:36.365Z,1013.69
2022-10-29T09:16:36.445Z,1013.59
2022-10-29T09:17:36.339Z,1013.62
2022-10-29T09:18:36.328Z,1013.61
2022-10-29T09:19:36.316Z,1013.62
2022-10-29T09:20:36.347Z,1013.55
2022-10-29T09:21:36.310Z,1013.62
2022-10-29T09:22:36.280Z,1013.57
2022-10-29T09:23:36.273Z,1013.53
2022-10-29T09:24:36.261Z,1013.54
2022-10-29T09:25:36.257Z,1013.55
2022-10-29T09:26:36.237Z,1013.54
2022-10-29T09:27:36.234Z,1013.55
2022-10-29T09:28:36.223Z,1013.49
2022-10-29T09:29:36.208Z,1013.58
2022-10-29T09:30:36.188Z,1013.48
2022-10-29T09:31:36.181Z,1013.54
2022-10-29T09:32:36.197Z,1013.51
2022-10-29T09:33:36.167Z,1013.50
2022-10-29T09:34:36.143Z,1013.52
2022-10-29T09:35:36.139Z,1013.50
2022-10-29T09:36:36.139Z,1013.42
2022-10-29T09:37:36.124Z,1013.42
2022-10-29T09:38:36.098Z,1013.31
2022-10-29T09:39:36.090Z,1013.22
2022-10-29T09:40:36.092Z,1013.15
2022-10-29T09:41:36.079Z,1013.25
2022-10-29T09:42:36.068Z,1013.29
2022-10-29T09:43:36.043Z,1013.31
2022-10-29T09:44:36.027Z,1013.29
2022-10-29T09:45:36.021Z,1013.20
2022-10-29T09:46:36.026Z,1013.22
2022-10-29T09:47:36.006Z,1013.27
2022-10-29T09:48:36.002Z,1013.25
2022-10-29T09:49:36.000Z,1013.21
2022-10-29T09:50:35.960Z,1013.25
2022-10-29T09:51:35.953Z,1013.19
2022-10-29T09:52:35.967Z,1013.17
2022-10-29T09:53:35.941Z,1013.24
2022-10-29T09:54:35.919Z,1013.28
2022-10-29T09:55:35.907Z,1013.21
2022-10-29T09:56:35.894Z,1013.21
2022-10-29T09:57:35.895Z,1013.26
2022-10-29T09:58:35.873Z,1013.18
2022-10-29T09:59:35.865Z,1013.20
2022-10-29T10:00:35.860Z,1013.20
2022-10-29T10:01:35.931Z,1013.19
2022-10-29T10:02:35.912Z,1013.26
2022-10-29T10:03:35.822Z,1013.31
2022-10-29T10:04:35.825Z,1013.28
2022-10-29T10:05:35.799Z,1013.30
2022-10-29T10:06:39.018Z,1013.32
2022-10-29T10:07:36.802Z,1013.28
2022-10-29T10:08:35.785Z,1013.38
2022-10-29T10:09:35.750Z,1013.26
2022-10-29T10:10:35.758Z,1013.34
2022-10-29T10:11:35.728Z,1013.34
2022-10-29T10:12:35.716Z,1013.34
2022-10-29T10:13:35.722Z,1013.33
2022-10-29T10:14:35.707Z,1013.29
2022-10-29T10:15:35.695Z,1013.30
2022-10-29T10:16:35.669Z,1013.24
2022-10-29T10:17:35.660Z,1013.24
2022-10-29T10:18:35.696Z,1013.22
2022-10-29T10:19:35.656Z,1013.16
2022-10-29T10:20:35.669Z,1013.22
2022-10-29T10:21:35.612Z,1013.15
2022-10-29T10:22:35.601Z,1013.19
2022-10-29T10:23:35.599Z,1013.21
2022-10-29T10:24:35.577Z,1013.19
2022-10-29T10:25:35.648Z,1013.23
2022-10-29T10:26:35.553Z,1013.22
2022-10-29T10:27:35.569Z,1013.24
2022-10-29T10:28:35.545Z,1013.29
2022-10-29T10:29:35.529Z,1013.20
2022-10-29T10:30:35.509Z,1013.25
2022-10-29T10:31:35.510Z,1013.21
2022-10-29T10:32:35.487Z,1013.15
2022-10-29T10:33:35.517Z,1013.19
2022-10-29T10:34:35.468Z,1013.16
2022-10-29T10:35:35.457Z,1013.22
2022-10-29T10:36:35.467Z,1013.15
2022-10-29T10:37:35.437Z,1013.19
2022-10-29T10:38:35.419Z,1013.19
2022-10-29T10:39:35.438Z,1013.13
2022-10-29T10:40:35.407Z,1013.12
2022-10-29T10:41:35.389Z,1013.09
2022-10-29T10:42:35.384Z,1013.10
2022-10-29T10:43:35.369Z,1013.00
2022-10-29T10:44:35.364Z,1013.01
2022-10-29T10:45:35.354Z,1012.96
2022-10-29T10:46:35.343Z,1012.94
2022-10-29T10:47:35.325Z,1012.98
2022-10-29T10:49:35.323Z,1012.94
2022-10-29T10:50:35.359Z,1012.97
2022-10-29T10:51:35.278Z,1012.93
2022-10-29T10:52:35.298Z,1012.90
2022-10-29T10:53:35.268Z,1012.91
2022-10-29T10:54:35.334Z,1012.94
2022-10-29T10:55:35.240Z,1012.95
2022-10-29T10:56:35.238Z,1012.96
2022-10-29T10:57:35.212Z,1012.91
2022-10-29T10:58:35.210Z,1012.89
2022-10-29T10:59:35.187Z,1012.91
2022-10-29T11:00:35.317Z,1012.90
2022-10-29T11:01:35.289Z,1012.88
2022-10-29T11:02:35.292Z,1012.80
2022-10-29T11:03:35.166Z,1012.88
2022-10-29T11:04:35.128Z,1012.88
2022-10-29T11:05:35.129Z,1012.73
2022-10-29T11:06:35.121Z,1012.71
2022-10-29T11:07:35.103Z,1012.64
2022-10-29T11:08:35.104Z,1012.59
2022-10-29T11:09:35.103Z,1012.66
2022-10-29T11:10:35.073Z,1012.60
2022-10-29T11:11:35.069Z,1012.59
2022-10-29T11:12:35.050Z,1012.63
2022-10-29T11:13:35.044Z,1012.55
2022-10-29T11:14:35.019Z,1012.51
2022-10-29T11:15:35.022Z,1012.50
2022-10-29T11:16:35.003Z,1012.58
2022-10-29T11:17:34.991Z,1012.57
2022-10-29T11:18:34.997Z,1012.60
2022-10-29T11:19:36.784Z,1012.58
2022-10-29T11:20:34.958Z,1012.58
2022-10-29T11:21:34.948Z,1012.60
2022-10-29T11:22:34.932Z,1012.57
2022-10-29T11:23:34.919Z,1012.58
2022-10-29T11:24:34.932Z,1012.56
2022-10-29T11:25:34.908Z,1012.57
2022-10-29T11:26:34.896Z,1012.59
2022-10-29T11:27:34.900Z,1012.57
2022-10-29T11:28:34.864Z,1012.59
2022-10-29T11:29:34.851Z,1012.59
2022-10-29T11:30:34.835Z,1012.55
2022-10-29T11:31:34.859Z,1012.59
2022-10-29T11:32:34.821Z,1012.60
2022-10-29T11:33:34.834Z,1012.59
2022-10-29T11:34:34.791Z,1012.59
2022-10-29T11:35:34.790Z,1012.65
2022-10-29T11:36:34.782Z,1012.68
2022-10-29T11:37:34.774Z,1012.59
2022-10-29T11:38:34.754Z,1012.62
2022-10-29T11:39:34.741Z,1012.60
2022-10-29T11:40:34.749Z,1012.57
2022-10-29T11:41:34.719Z,1012.60
2022-10-29T11:42:34.716Z,1012.60
2022-10-29T11:43:34.710Z,1012.54
2022-10-29T11:44:34.685Z,1012.60
2022-10-29T11:45:34.669Z,1012.54
2022-10-29T11:46:34.665Z,1012.47
2022-10-29T11:47:34.661Z,1012.54
2022-10-29T11:48:34.632Z,1012.52
2022-10-29T11:49:34.620Z,1012.53
2022-10-29T11:50:34.625Z,1012.53
2022-10-29T11:51:34.614Z,1012.57
2022-10-29T11:52:35.732Z,1012.51
2022-10-29T11:53:34.609Z,1012.51
2022-10-29T11:54:34.569Z,1012.45
2022-10-29T11:55:34.558Z,1012.46
2022-10-29T11:56:34.562Z,1012.38
2022-10-29T11:57:34.548Z,1012.42
2022-10-29T11:58:38.053Z,1012.39
2022-10-29T11:59:35.514Z,1012.30
2022-10-29T12:00:34.504Z,1012.29
2022-10-29T12:01:34.569Z,1012.29
2022-10-29T12:02:34.478Z,1012.33
2022-10-29T12:03:34.572Z,1012.33
2022-10-29T12:04:34.460Z,1012.30
2022-10-29T12:05:34.477Z,1012.24
2022-10-29T12:06:34.436Z,1012.29
2022-10-29T12:07:34.422Z,1012.33
2022-10-29T12:08:34.440Z,1012.35
2022-10-29T12:09:34.400Z,1012.29
2022-10-29T12:10:34.388Z,1012.26
2022-10-29T12:11:37.850Z,1012.29
2022-10-29T12:12:35.386Z,1012.33
2022-10-29T12:13:34.379Z,1012.30